sensor_id;sensor_type;location;lat;lon;timestamp;P1;durP1;ratioP1;P2;durP2;ratioP2
20888;SDS011;10604;51.976;7.594;2023-02-27T00:00:14;6.50;;;4.17;;
20888;SDS011;10604;51.976;7.594;2023-02-27T00:02:42;7.53;;;3.90;;
20888;SDS011;10604;51.976;7.594;2023-02-27T00:05:08;7.22;;;3.47;;
20888;SDS011;10604;51.976;7.594;2023-02-27T00:07:34;6.45;;;4.05;;
20888;SDS011;10604;51.976;7.594;2023-02-27T00:10:00;5.70;;;3.70;;
20888;SDS011;10604;51.976;7.594;2023-02-27T00:12:25;5.37;;;3.17;;
20888;SDS011;10604;51.976;7.594;2023-02-27T00:14:51;5.80;;;3.43;;
20888;SDS011;10604;51.976;7.594;2023-02-27T00:17:16;5.90;;;3.22;;
20888;SDS011;10604;51.976;7.594;2023-02-27T00:19:41;5.53;;;2.93;;
20888;SDS011;10604;51.976;7.594;2023-02-27T00:22:07;7.80;;;3.30;;
20888;SDS011;10604;51.976;7.594;2023-02-27T00:24:32;4.40;;;3.15;;
20888;SDS011;10604;51.976;7.594;2023-02-27T00:26:58;5.27;;;3.20;;
20888;SDS011;10604;51.976;7.594;2023-02-27T00:29:23;4.63;;;3.43;;
20888;SDS011;10604;51.976;7.594;2023-02-27T00:31:49;5.93;;;3.67;;
20888;SDS011;10604;51.976;7.594;2023-02-27T00:34:14;5.47;;;3.88;;
20888;SDS011;10604;51.976;7.594;2023-02-27T00:36:40;5.13;;;3.50;;
20888;SDS011;10604;51.976;7.594;2023-02-27T00:39:05;4.45;;;3.40;;
20888;SDS011;10604;51.976;7.594;2023-02-27T00:41:31;7.93;;;3.93;;
20888;SDS011;10604;51.976;7.594;2023-02-27T00:43:56;8.70;;;4.07;;
20888;SDS011;10604;51.976;7.594;2023-02-27T00:46:22;5.40;;;3.80;;
20888;SDS011;10604;51.976;7.594;2023-02-27T00:48:47;5.70;;;3.83;;
20888;SDS011;10604;51.976;7.594;2023-02-27T00:51:13;6.93;;;3.70;;
20888;SDS011;10604;51.976;7.594;2023-02-27T00:53:38;5.70;;;3.43;;
20888;SDS011;10604;51.976;7.594;2023-02-27T00:56:04;6.32;;;4.05;;
20888;SDS011;10604;51.976;7.594;2023-02-27T00:58:29;4.73;;;3.43;;
20888;SDS011;10604;51.976;7.594;2023-02-27T01:00:54;6.60;;;3.90;;
20888;SDS011;10604;51.976;7.594;2023-02-27T01:03:22;6.10;;;3.67;;
20888;SDS011;10604;51.976;7.594;2023-02-27T01:05:47;5.70;;;3.80;;
20888;SDS011;10604;51.976;7.594;2023-02-27T01:08:13;5.93;;;3.80;;
20888;SDS011;10604;51.976;7.594;2023-02-27T01:10:38;5.77;;;3.97;;
20888;SDS011;10604;51.976;7.594;2023-02-27T01:13:04;7.17;;;4.17;;
20888;SDS011;10604;51.976;7.594;2023-02-27T01:15:29;5.23;;;3.97;;
20888;SDS011;10604;51.976;7.594;2023-02-27T01:17:54;5.97;;;4.03;;
20888;SDS011;10604;51.976;7.594;2023-02-27T01:20:20;6.20;;;4.57;;
20888;SDS011;10604;51.976;7.594;2023-02-27T01:22:45;4.53;;;3.77;;
20888;SDS011;10604;51.976;7.594;2023-02-27T01:25:11;6.28;;;4.00;;
20888;SDS011;10604;51.976;7.594;2023-02-27T01:27:36;7.45;;;4.10;;
20888;SDS011;10604;51.976;7.594;2023-02-27T01:30:02;6.37;;;4.60;;
20888;SDS011;10604;51.976;7.594;2023-02-27T01:32:27;7.07;;;4.32;;
20888;SDS011;10604;51.976;7.594;2023-02-27T01:34:53;7.07;;;4.50;;
20888;SDS011;10604;51.976;7.594;2023-02-27T01:37:18;7.37;;;4.43;;
20888;SDS011;10604;51.976;7.594;2023-02-27T01:39:43;6.70;;;4.80;;
20888;SDS011;10604;51.976;7.594;2023-02-27T01:42:17;8.00;;;4.60;;
20888;SDS011;10604;51.976;7.594;2023-02-27T01:47:36;7.77;;;4.67;;
20888;SDS011;10604;51.976;7.594;2023-02-27T01:50:04;8.63;;;4.47;;
20888;SDS011;10604;51.976;7.594;2023-02-27T01:52:30;7.03;;;5.25;;
20888;SDS011;10604;51.976;7.594;2023-02-27T01:54:58;7.53;;;5.40;;
20888;SDS011;10604;51.976;7.594;2023-02-27T01:57:23;9.35;;;6.00;;
20888;SDS011;10604;51.976;7.594;2023-02-27T01:59:50;7.60;;;5.57;;
20888;SDS011;10604;51.976;7.594;2023-02-27T02:02:18;9.63;;;5.67;;
20888;SDS011;10604;51.976;7.594;2023-02-27T02:04:51;8.73;;;5.53;;
20888;SDS011;10604;51.976;7.594;2023-02-27T02:07:18;6.87;;;5.33;;
20888;SDS011;10604;51.976;7.594;2023-02-27T02:09:47;7.07;;;5.50;;
20888;SDS011;10604;51.976;7.594;2023-02-27T02:12:15;6.70;;;5.20;;
20888;SDS011;10604;51.976;7.594;2023-02-27T02:14:43;7.60;;;5.50;;
20888;SDS011;10604;51.976;7.594;2023-02-27T02:34:25;6.22;;;4.78;;
20888;SDS011;10604;51.976;7.594;2023-02-27T02:42:37;9.07;;;5.10;;
20888;SDS011;10604;51.976;7.594;2023-02-27T02:45:25;6.72;;;4.57;;
20888;SDS011;10604;51.976;7.594;2023-02-27T02:55:37;6.03;;;4.50;;
20888;SDS011;10604;51.976;7.594;2023-02-27T03:00:54;6.43;;;4.80;;
20888;SDS011;10604;51.976;7.594;2023-02-27T03:03:29;6.43;;;4.47;;
20888;SDS011;10604;51.976;7.594;2023-02-27T03:06:33;6.03;;;4.70;;
20888;SDS011;10604;51.976;7.594;2023-02-27T03:09:04;6.67;;;4.67;;
20888;SDS011;10604;51.976;7.594;2023-02-27T03:11:37;6.32;;;4.30;;
20888;SDS011;10604;51.976;7.594;2023-02-27T03:14:14;8.60;;;4.90;;
20888;SDS011;10604;51.976;7.594;2023-02-27T03:16:47;7.00;;;4.97;;
20888;SDS011;10604;51.976;7.594;2023-02-27T03:19:18;7.82;;;4.78;;
20888;SDS011;10604;51.976;7.594;2023-02-27T03:21:49;8.23;;;5.00;;
20888;SDS011;10604;51.976;7.594;2023-02-27T03:24:37;8.77;;;4.55;;
20888;SDS011;10604;51.976;7.594;2023-02-27T03:27:07;7.20;;;4.88;;
20888;SDS011;10604;51.976;7.594;2023-02-27T03:29:38;8.43;;;5.13;;
20888;SDS011;10604;51.976;7.594;2023-02-27T03:32:12;5.78;;;4.43;;
20888;SDS011;10604;51.976;7.594;2023-02-27T03:34:44;6.18;;;4.60;;
20888;SDS011;10604;51.976;7.594;2023-02-27T03:40:23;9.32;;;4.70;;
20888;SDS011;10604;51.976;7.594;2023-02-27T03:43:00;6.25;;;4.75;;
20888;SDS011;10604;51.976;7.594;2023-02-27T03:45:38;7.30;;;4.93;;
20888;SDS011;10604;51.976;7.594;2023-02-27T03:48:16;7.15;;;4.90;;
20888;SDS011;10604;51.976;7.594;2023-02-27T03:50:42;9.17;;;4.80;;
20888;SDS011;10604;51.976;7.594;2023-02-27T03:53:10;6.07;;;4.78;;
20888;SDS011;10604;51.976;7.594;2023-02-27T03:55:45;7.82;;;5.25;;
20888;SDS011;10604;51.976;7.594;2023-02-27T03:58:13;6.95;;;4.72;;
20888;SDS011;10604;51.976;7.594;2023-02-27T04:00:38;7.33;;;5.07;;
20888;SDS011;10604;51.976;7.594;2023-02-27T04:03:04;7.03;;;4.73;;
20888;SDS011;10604;51.976;7.594;2023-02-27T04:05:30;7.43;;;4.75;;
20888;SDS011;10604;51.976;7.594;2023-02-27T04:13:33;6.90;;;4.47;;
20888;SDS011;10604;51.976;7.594;2023-02-27T04:16:13;7.47;;;4.57;;
20888;SDS011;10604;51.976;7.594;2023-02-27T04:24:22;6.90;;;4.32;;
20888;SDS011;10604;51.976;7.594;2023-02-27T04:26:53;5.95;;;4.60;;
20888;SDS011;10604;51.976;7.594;2023-02-27T04:32:15;8.02;;;4.47;;
20888;SDS011;10604;51.976;7.594;2023-02-27T04:34:49;6.05;;;4.25;;
20888;SDS011;10604;51.976;7.594;2023-02-27T04:37:35;6.55;;;4.15;;
20888;SDS011;10604;51.976;7.594;2023-02-27T04:40:11;6.90;;;4.57;;
20888;SDS011;10604;51.976;7.594;2023-02-27T04:42:43;9.40;;;4.88;;
20888;SDS011;10604;51.976;7.594;2023-02-27T04:45:12;6.65;;;4.80;;
20888;SDS011;10604;51.976;7.594;2023-02-27T04:47:43;7.87;;;5.03;;
20888;SDS011;10604;51.976;7.594;2023-02-27T04:50:26;9.05;;;5.25;;
20888;SDS011;10604;51.976;7.594;2023-02-27T04:52:59;6.45;;;4.82;;
20888;SDS011;10604;51.976;7.594;2023-02-27T04:55:34;7.35;;;4.90;;
20888;SDS011;10604;51.976;7.594;2023-02-27T04:58:10;7.40;;;4.50;;
20888;SDS011;10604;51.976;7.594;2023-02-27T05:00:40;7.03;;;4.55;;
20888;SDS011;10604;51.976;7.594;2023-02-27T05:03:13;8.07;;;5.50;;
20888;SDS011;10604;51.976;7.594;2023-02-27T05:05:42;8.88;;;5.45;;
20888;SDS011;10604;51.976;7.594;2023-02-27T05:08:15;7.53;;;4.88;;
20888;SDS011;10604;51.976;7.594;2023-02-27T05:10:49;7.57;;;4.72;;
20888;SDS011;10604;51.976;7.594;2023-02-27T05:13:24;6.20;;;4.75;;
20888;SDS011;10604;51.976;7.594;2023-02-27T05:15:58;6.80;;;4.80;;
20888;SDS011;10604;51.976;7.594;2023-02-27T05:18:42;6.28;;;4.57;;
20888;SDS011;10604;51.976;7.594;2023-02-27T05:23:35;8.13;;;5.20;;
20888;SDS011;10604;51.976;7.594;2023-02-27T05:26:43;6.63;;;5.03;;
20888;SDS011;10604;51.976;7.594;2023-02-27T05:29:07;7.75;;;5.13;;
20888;SDS011;10604;51.976;7.594;2023-02-27T05:31:45;10.10;;;5.33;;
20888;SDS011;10604;51.976;7.594;2023-02-27T05:36:54;8.02;;;5.07;;
20888;SDS011;10604;51.976;7.594;2023-02-27T05:39:28;6.70;;;5.25;;
20888;SDS011;10604;51.976;7.594;2023-02-27T05:41:57;7.07;;;5.17;;
20888;SDS011;10604;51.976;7.594;2023-02-27T05:44:28;6.90;;;5.00;;
20888;SDS011;10604;51.976;7.594;2023-02-27T05:47:11;8.38;;;5.35;;
20888;SDS011;10604;51.976;7.594;2023-02-27T05:49:41;7.50;;;5.28;;
20888;SDS011;10604;51.976;7.594;2023-02-27T05:52:11;8.40;;;5.38;;
20888;SDS011;10604;51.976;7.594;2023-02-27T05:54:42;6.97;;;5.57;;
20888;SDS011;10604;51.976;7.594;2023-02-27T05:57:13;9.83;;;5.90;;
20888;SDS011;10604;51.976;7.594;2023-02-27T06:00:28;7.93;;;5.93;;
20888;SDS011;10604;51.976;7.594;2023-02-27T06:02:35;10.18;;;6.03;;
20888;SDS011;10604;51.976;7.594;2023-02-27T06:05:02;10.60;;;6.95;;
20888;SDS011;10604;51.976;7.594;2023-02-27T06:07:29;8.60;;;6.90;;
20888;SDS011;10604;51.976;7.594;2023-02-27T06:09:56;12.57;;;8.07;;
20888;SDS011;10604;51.976;7.594;2023-02-27T06:12:22;10.15;;;7.13;;
20888;SDS011;10604;51.976;7.594;2023-02-27T06:14:47;10.40;;;6.53;;
20888;SDS011;10604;51.976;7.594;2023-02-27T06:17:13;7.83;;;6.07;;
20888;SDS011;10604;51.976;7.594;2023-02-27T06:19:38;8.75;;;6.13;;
20888;SDS011;10604;51.976;7.594;2023-02-27T06:22:03;8.20;;;5.73;;
20888;SDS011;10604;51.976;7.594;2023-02-27T06:24:29;7.77;;;5.80;;
20888;SDS011;10604;51.976;7.594;2023-02-27T06:26:54;8.80;;;5.80;;
20888;SDS011;10604;51.976;7.594;2023-02-27T06:29:20;9.20;;;5.80;;
20888;SDS011;10604;51.976;7.594;2023-02-27T06:31:45;8.18;;;4.95;;
20888;SDS011;10604;51.976;7.594;2023-02-27T06:34:11;8.53;;;5.87;;
20888;SDS011;10604;51.976;7.594;2023-02-27T06:36:36;8.30;;;5.97;;
20888;SDS011;10604;51.976;7.594;2023-02-27T06:39:01;8.10;;;5.83;;
20888;SDS011;10604;51.976;7.594;2023-02-27T06:41:28;8.63;;;5.63;;
20888;SDS011;10604;51.976;7.594;2023-02-27T06:43:54;7.50;;;5.60;;
20888;SDS011;10604;51.976;7.594;2023-02-27T06:46:20;8.68;;;6.05;;
20888;SDS011;10604;51.976;7.594;2023-02-27T06:48:45;7.47;;;5.63;;
20888;SDS011;10604;51.976;7.594;2023-02-27T06:51:11;6.43;;;5.40;;
20888;SDS011;10604;51.976;7.594;2023-02-27T06:53:36;9.20;;;5.93;;
20888;SDS011;10604;51.976;7.594;2023-02-27T06:56:01;6.93;;;5.77;;
20888;SDS011;10604;51.976;7.594;2023-02-27T06:58:27;7.40;;;6.00;;
20888;SDS011;10604;51.976;7.594;2023-02-27T07:00:52;11.50;;;8.52;;
20888;SDS011;10604;51.976;7.594;2023-02-27T07:03:18;9.73;;;8.10;;
20888;SDS011;10604;51.976;7.594;2023-02-27T07:05:43;9.87;;;8.00;;
20888;SDS011;10604;51.976;7.594;2023-02-27T07:08:09;9.33;;;7.93;;
20888;SDS011;10604;51.976;7.594;2023-02-27T07:10:34;8.25;;;7.43;;
20888;SDS011;10604;51.976;7.594;2023-02-27T07:13:00;8.25;;;6.90;;
20888;SDS011;10604;51.976;7.594;2023-02-27T07:15:26;11.77;;;7.55;;
20888;SDS011;10604;51.976;7.594;2023-02-27T07:17:52;10.30;;;8.60;;
20888;SDS011;10604;51.976;7.594;2023-02-27T07:20:18;8.07;;;7.28;;
20888;SDS011;10604;51.976;7.594;2023-02-27T07:22:44;9.13;;;6.80;;
20888;SDS011;10604;51.976;7.594;2023-02-27T07:25:09;9.07;;;6.60;;
20888;SDS011;10604;51.976;7.594;2023-02-27T07:27:34;8.67;;;6.50;;
20888;SDS011;10604;51.976;7.594;2023-02-27T07:30:00;9.43;;;6.83;;
20888;SDS011;10604;51.976;7.594;2023-02-27T07:32:26;9.10;;;6.20;;
20888;SDS011;10604;51.976;7.594;2023-02-27T07:34:51;8.32;;;6.65;;
20888;SDS011;10604;51.976;7.594;2023-02-27T07:37:17;9.32;;;6.82;;
20888;SDS011;10604;51.976;7.594;2023-02-27T07:39:42;8.60;;;6.57;;
20888;SDS011;10604;51.976;7.594;2023-02-27T07:42:08;11.90;;;6.80;;
20888;SDS011;10604;51.976;7.594;2023-02-27T07:44:34;8.07;;;6.20;;
20888;SDS011;10604;51.976;7.594;2023-02-27T07:46:59;11.13;;;6.73;;
20888;SDS011;10604;51.976;7.594;2023-02-27T07:49:25;8.20;;;6.60;;
20888;SDS011;10604;51.976;7.594;2023-02-27T07:51:50;8.70;;;6.53;;
20888;SDS011;10604;51.976;7.594;2023-02-27T07:54:16;12.70;;;6.83;;
20888;SDS011;10604;51.976;7.594;2023-02-27T07:56:41;10.23;;;6.53;;
20888;SDS011;10604;51.976;7.594;2023-02-27T07:59:06;10.43;;;6.53;;
20888;SDS011;10604;51.976;7.594;2023-02-27T08:01:32;9.17;;;6.90;;
20888;SDS011;10604;51.976;7.594;2023-02-27T08:03:57;11.43;;;7.77;;
20888;SDS011;10604;51.976;7.594;2023-02-27T08:06:23;8.63;;;6.50;;
20888;SDS011;10604;51.976;7.594;2023-02-27T08:08:48;12.10;;;6.60;;
20888;SDS011;10604;51.976;7.594;2023-02-27T08:11:14;7.13;;;5.55;;
20888;SDS011;10604;51.976;7.594;2023-02-27T08:13:40;8.50;;;6.20;;
20888;SDS011;10604;51.976;7.594;2023-02-27T08:16:06;10.23;;;5.70;;
20888;SDS011;10604;51.976;7.594;2023-02-27T08:18:32;10.18;;;5.57;;
20888;SDS011;10604;51.976;7.594;2023-02-27T08:20:57;7.33;;;5.23;;
20888;SDS011;10604;51.976;7.594;2023-02-27T08:23:23;9.90;;;5.80;;
20888;SDS011;10604;51.976;7.594;2023-02-27T08:25:48;7.17;;;4.93;;
20888;SDS011;10604;51.976;7.594;2023-02-27T08:28:13;10.10;;;5.18;;
20888;SDS011;10604;51.976;7.594;2023-02-27T08:30:39;10.43;;;5.00;;
20888;SDS011;10604;51.976;7.594;2023-02-27T08:33:05;6.43;;;4.80;;
20888;SDS011;10604;51.976;7.594;2023-02-27T08:35:30;7.05;;;4.80;;
20888;SDS011;10604;51.976;7.594;2023-02-27T08:37:56;5.93;;;4.40;;
20888;SDS011;10604;51.976;7.594;2023-02-27T08:40:21;7.32;;;4.85;;
20888;SDS011;10604;51.976;7.594;2023-02-27T08:42:47;8.07;;;4.87;;
20888;SDS011;10604;51.976;7.594;2023-02-27T08:45:12;6.60;;;4.50;;
20888;SDS011;10604;51.976;7.594;2023-02-27T08:47:37;9.13;;;5.00;;
20888;SDS011;10604;51.976;7.594;2023-02-27T08:50:03;7.55;;;4.32;;
20888;SDS011;10604;51.976;7.594;2023-02-27T08:52:30;7.80;;;4.22;;
20888;SDS011;10604;51.976;7.594;2023-02-27T08:54:55;9.63;;;4.45;;
20888;SDS011;10604;51.976;7.594;2023-02-27T08:57:21;9.07;;;4.73;;
20888;SDS011;10604;51.976;7.594;2023-02-27T08:59:46;8.27;;;4.20;;
20888;SDS011;10604;51.976;7.594;2023-02-27T09:02:11;9.15;;;5.38;;
20888;SDS011;10604;51.976;7.594;2023-02-27T09:04:37;7.67;;;4.93;;
20888;SDS011;10604;51.976;7.594;2023-02-27T09:07:03;9.68;;;5.20;;
20888;SDS011;10604;51.976;7.594;2023-02-27T09:09:28;8.00;;;4.70;;
20888;SDS011;10604;51.976;7.594;2023-02-27T09:11:53;5.90;;;4.30;;
20888;SDS011;10604;51.976;7.594;2023-02-27T09:14:19;6.37;;;4.10;;
20888;SDS011;10604;51.976;7.594;2023-02-27T09:16:44;6.00;;;3.60;;
20888;SDS011;10604;51.976;7.594;2023-02-27T09:19:10;6.13;;;3.90;;
20888;SDS011;10604;51.976;7.594;2023-02-27T09:21:38;6.15;;;4.28;;
20888;SDS011;10604;51.976;7.594;2023-02-27T09:24:04;7.17;;;3.67;;
20888;SDS011;10604;51.976;7.594;2023-02-27T09:26:29;8.10;;;3.72;;
20888;SDS011;10604;51.976;7.594;2023-02-27T09:28:55;6.63;;;3.70;;
20888;SDS011;10604;51.976;7.594;2023-02-27T09:31:20;5.37;;;3.50;;
20888;SDS011;10604;51.976;7.594;2023-02-27T09:33:46;6.47;;;3.90;;
20888;SDS011;10604;51.976;7.594;2023-02-27T09:36:11;6.43;;;3.70;;
20888;SDS011;10604;51.976;7.594;2023-02-27T09:38:37;5.57;;;3.30;;
20888;SDS011;10604;51.976;7.594;2023-02-27T09:41:03;6.27;;;3.07;;
20888;SDS011;10604;51.976;7.594;2023-02-27T09:46:04;5.80;;;3.45;;
20888;SDS011;10604;51.976;7.594;2023-02-27T09:48:33;5.88;;;3.17;;
20888;SDS011;10604;51.976;7.594;2023-02-27T09:51:03;8.25;;;3.47;;
20888;SDS011;10604;51.976;7.594;2023-02-27T09:53:34;6.50;;;3.08;;
20888;SDS011;10604;51.976;7.594;2023-02-27T09:56:22;5.60;;;2.85;;
20888;SDS011;10604;51.976;7.594;2023-02-27T10:01:20;4.82;;;2.88;;
20888;SDS011;10604;51.976;7.594;2023-02-27T10:06:32;5.18;;;2.80;;
20888;SDS011;10604;51.976;7.594;2023-02-27T10:12:04;5.03;;;2.53;;
20888;SDS011;10604;51.976;7.594;2023-02-27T10:17:22;5.00;;;2.40;;
20888;SDS011;10604;51.976;7.594;2023-02-27T10:19:52;4.00;;;2.10;;
20888;SDS011;10604;51.976;7.594;2023-02-27T10:22:20;5.45;;;2.33;;
20888;SDS011;10604;51.976;7.594;2023-02-27T10:25:02;5.30;;;2.40;;
20888;SDS011;10604;51.976;7.594;2023-02-27T10:27:31;3.65;;;2.20;;
20888;SDS011;10604;51.976;7.594;2023-02-27T10:30:21;3.50;;;2.20;;
20888;SDS011;10604;51.976;7.594;2023-02-27T10:32:49;4.93;;;2.42;;
20888;SDS011;10604;51.976;7.594;2023-02-27T10:35:38;5.32;;;2.20;;
20888;SDS011;10604;51.976;7.594;2023-02-27T10:38:19;4.63;;;2.25;;
20888;SDS011;10604;51.976;7.594;2023-02-27T10:40:53;4.78;;;1.92;;
20888;SDS011;10604;51.976;7.594;2023-02-27T10:43:21;4.07;;;2.30;;
20888;SDS011;10604;51.976;7.594;2023-02-27T10:45:47;5.47;;;2.40;;
20888;SDS011;10604;51.976;7.594;2023-02-27T10:48:12;5.43;;;2.22;;
20888;SDS011;10604;51.976;7.594;2023-02-27T10:50:40;5.07;;;2.10;;
20888;SDS011;10604;51.976;7.594;2023-02-27T10:53:16;5.00;;;2.20;;
20888;SDS011;10604;51.976;7.594;2023-02-27T10:56:02;5.40;;;2.30;;
20888;SDS011;10604;51.976;7.594;2023-02-27T10:58:30;4.75;;;2.08;;
20888;SDS011;10604;51.976;7.594;2023-02-27T11:01:00;4.80;;;2.17;;
20888;SDS011;10604;51.976;7.594;2023-02-27T11:03:31;4.63;;;2.42;;
20888;SDS011;10604;51.976;7.594;2023-02-27T11:06:07;4.05;;;2.15;;
20888;SDS011;10604;51.976;7.594;2023-02-27T11:08:37;5.55;;;2.28;;
20888;SDS011;10604;51.976;7.594;2023-02-27T11:11:04;5.37;;;2.13;;
20888;SDS011;10604;51.976;7.594;2023-02-27T11:13:38;4.97;;;2.28;;
20888;SDS011;10604;51.976;7.594;2023-02-27T11:18:39;4.10;;;2.23;;
20888;SDS011;10604;51.976;7.594;2023-02-27T11:23:48;4.03;;;2.00;;
20888;SDS011;10604;51.976;7.594;2023-02-27T11:26:19;4.57;;;2.42;;
20888;SDS011;10604;51.976;7.594;2023-02-27T11:29:02;5.40;;;2.50;;
20888;SDS011;10604;51.976;7.594;2023-02-27T11:31:35;4.28;;;2.42;;
20888;SDS011;10604;51.976;7.594;2023-02-27T11:34:03;4.40;;;2.47;;
20888;SDS011;10604;51.976;7.594;2023-02-27T11:36:40;4.68;;;2.42;;
20888;SDS011;10604;51.976;7.594;2023-02-27T11:41:55;3.85;;;2.33;;
20888;SDS011;10604;51.976;7.594;2023-02-27T11:44:24;4.53;;;2.58;;
20888;SDS011;10604;51.976;7.594;2023-02-27T11:47:06;5.40;;;2.50;;
20888;SDS011;10604;51.976;7.594;2023-02-27T11:55:04;5.10;;;2.45;;
20888;SDS011;10604;51.976;7.594;2023-02-27T11:57:39;4.30;;;2.67;;
20888;SDS011;10604;51.976;7.594;2023-02-27T12:00:22;5.82;;;2.50;;
20888;SDS011;10604;51.976;7.594;2023-02-27T12:05:29;3.50;;;2.50;;
20888;SDS011;10604;51.976;7.594;2023-02-27T12:10:52;4.28;;;2.63;;
20888;SDS011;10604;51.976;7.594;2023-02-27T12:13:44;4.13;;;2.55;;
20888;SDS011;10604;51.976;7.594;2023-02-27T12:18:59;5.78;;;2.78;;
20888;SDS011;10604;51.976;7.594;2023-02-27T12:21:34;3.65;;;2.10;;
20888;SDS011;10604;51.976;7.594;2023-02-27T12:26:56;3.55;;;2.10;;
20888;SDS011;10604;51.976;7.594;2023-02-27T12:34:37;3.80;;;1.90;;
20888;SDS011;10604;51.976;7.594;2023-02-27T12:37:11;3.38;;;1.80;;
20888;SDS011;10604;51.976;7.594;2023-02-27T12:39:42;3.28;;;1.75;;
20888;SDS011;10604;51.976;7.594;2023-02-27T12:50:17;3.65;;;1.90;;
20888;SDS011;10604;51.976;7.594;2023-02-27T12:55:25;4.40;;;2.00;;
20888;SDS011;10604;51.976;7.594;2023-02-27T13:00:21;4.22;;;1.90;;
20888;SDS011;10604;51.976;7.594;2023-02-27T13:02:57;3.17;;;1.90;;
20888;SDS011;10604;51.976;7.594;2023-02-27T13:08:47;4.25;;;1.77;;
20888;SDS011;10604;51.976;7.594;2023-02-27T13:19:46;2.42;;;1.80;;
20888;SDS011;10604;51.976;7.594;2023-02-27T13:22:01;3.03;;;1.70;;
20888;SDS011;10604;51.976;7.594;2023-02-27T13:24:39;3.38;;;1.70;;
20888;SDS011;10604;51.976;7.594;2023-02-27T13:27:23;2.63;;;1.38;;
20888;SDS011;10604;51.976;7.594;2023-02-27T13:37:57;4.78;;;1.92;;
20888;SDS011;10604;51.976;7.594;2023-02-27T13:43:00;4.88;;;2.47;;
20888;SDS011;10604;51.976;7.594;2023-02-27T13:50:57;5.32;;;1.75;;
20888;SDS011;10604;51.976;7.594;2023-02-27T13:53:22;3.70;;;1.97;;
20888;SDS011;10604;51.976;7.594;2023-02-27T13:55:49;3.35;;;1.85;;
20888;SDS011;10604;51.976;7.594;2023-02-27T13:58:20;4.63;;;1.70;;
20888;SDS011;10604;51.976;7.594;2023-02-27T14:00:52;3.78;;;1.77;;
20888;SDS011;10604;51.976;7.594;2023-02-27T14:03:20;3.00;;;1.60;;
20888;SDS011;10604;51.976;7.594;2023-02-27T14:05:50;3.83;;;1.87;;
20888;SDS011;10604;51.976;7.594;2023-02-27T14:08:27;5.07;;;2.70;;
20888;SDS011;10604;51.976;7.594;2023-02-27T14:11:18;3.90;;;1.90;;
20888;SDS011;10604;51.976;7.594;2023-02-27T14:19:02;3.05;;;1.60;;
20888;SDS011;10604;51.976;7.594;2023-02-27T14:22:01;3.58;;;1.70;;
20888;SDS011;10604;51.976;7.594;2023-02-27T14:25:10;3.50;;;1.90;;
20888;SDS011;10604;51.976;7.594;2023-02-27T14:27:37;4.32;;;1.80;;
20888;SDS011;10604;51.976;7.594;2023-02-27T14:30:30;2.53;;;1.80;;
20888;SDS011;10604;51.976;7.594;2023-02-27T14:32:57;3.83;;;1.98;;
20888;SDS011;10604;51.976;7.594;2023-02-27T14:35:26;3.65;;;1.90;;
20888;SDS011;10604;51.976;7.594;2023-02-27T14:37:53;4.65;;;2.15;;
20888;SDS011;10604;51.976;7.594;2023-02-27T14:40:20;4.57;;;2.23;;
20888;SDS011;10604;51.976;7.594;2023-02-27T14:45:40;2.92;;;1.73;;
20888;SDS011;10604;51.976;7.594;2023-02-27T14:48:07;3.13;;;1.77;;
20888;SDS011;10604;51.976;7.594;2023-02-27T14:50:35;2.85;;;1.60;;
20888;SDS011;10604;51.976;7.594;2023-02-27T14:53:04;3.38;;;1.60;;
20888;SDS011;10604;51.976;7.594;2023-02-27T14:55:32;3.27;;;1.80;;
20888;SDS011;10604;51.976;7.594;2023-02-27T15:00:45;3.33;;;1.70;;
20888;SDS011;10604;51.976;7.594;2023-02-27T15:03:17;4.60;;;1.90;;
20888;SDS011;10604;51.976;7.594;2023-02-27T15:05:46;3.00;;;1.80;;
20888;SDS011;10604;51.976;7.594;2023-02-27T15:08:23;3.55;;;1.70;;
20888;SDS011;10604;51.976;7.594;2023-02-27T15:10:52;3.17;;;1.60;;
20888;SDS011;10604;51.976;7.594;2023-02-27T15:13:35;2.50;;;1.60;;
20888;SDS011;10604;51.976;7.594;2023-02-27T15:18:47;4.07;;;1.97;;
20888;SDS011;10604;51.976;7.594;2023-02-27T15:21:15;3.45;;;1.77;;
20888;SDS011;10604;51.976;7.594;2023-02-27T15:23:41;3.97;;;1.73;;
20888;SDS011;10604;51.976;7.594;2023-02-27T15:26:11;2.10;;;1.70;;
20888;SDS011;10604;51.976;7.594;2023-02-27T15:28:38;3.55;;;1.70;;
20888;SDS011;10604;51.976;7.594;2023-02-27T15:31:04;2.77;;;1.73;;
20888;SDS011;10604;51.976;7.594;2023-02-27T15:33:33;4.22;;;1.70;;
20888;SDS011;10604;51.976;7.594;2023-02-27T15:35:59;3.70;;;2.05;;
20888;SDS011;10604;51.976;7.594;2023-02-27T15:40:59;2.13;;;1.80;;
20888;SDS011;10604;51.976;7.594;2023-02-27T15:43:27;3.60;;;1.90;;
20888;SDS011;10604;51.976;7.594;2023-02-27T15:45:53;5.95;;;2.35;;
20888;SDS011;10604;51.976;7.594;2023-02-27T15:48:20;3.83;;;2.70;;
20888;SDS011;10604;51.976;7.594;2023-02-27T15:50:56;3.83;;;2.30;;
20888;SDS011;10604;51.976;7.594;2023-02-27T15:53:26;4.55;;;2.00;;
20888;SDS011;10604;51.976;7.594;2023-02-27T15:55:57;2.30;;;1.70;;
20888;SDS011;10604;51.976;7.594;2023-02-27T15:58:29;2.95;;;1.70;;
20888;SDS011;10604;51.976;7.594;2023-02-27T16:01:01;3.10;;;2.03;;
20888;SDS011;10604;51.976;7.594;2023-02-27T16:03:36;5.53;;;2.50;;
20888;SDS011;10604;51.976;7.594;2023-02-27T16:06:10;9.77;;;5.20;;
20888;SDS011;10604;51.976;7.594;2023-02-27T16:08:43;5.30;;;2.80;;
20888;SDS011;10604;51.976;7.594;2023-02-27T16:11:18;3.60;;;1.73;;
20888;SDS011;10604;51.976;7.594;2023-02-27T16:13:48;3.88;;;1.90;;
20888;SDS011;10604;51.976;7.594;2023-02-27T16:24:28;1.70;;;1.58;;
20888;SDS011;10604;51.976;7.594;2023-02-27T16:26:55;3.60;;;1.98;;
20888;SDS011;10604;51.976;7.594;2023-02-27T16:29:22;4.03;;;1.88;;
20888;SDS011;10604;51.976;7.594;2023-02-27T16:31:51;3.65;;;1.90;;
20888;SDS011;10604;51.976;7.594;2023-02-27T16:34:34;3.40;;;1.90;;
20888;SDS011;10604;51.976;7.594;2023-02-27T16:37:04;4.15;;;1.98;;
20888;SDS011;10604;51.976;7.594;2023-02-27T16:39:31;3.37;;;1.77;;
20888;SDS011;10604;51.976;7.594;2023-02-27T16:41:58;3.83;;;1.98;;
20888;SDS011;10604;51.976;7.594;2023-02-27T16:44:24;3.13;;;2.00;;
20888;SDS011;10604;51.976;7.594;2023-02-27T16:46:51;3.63;;;1.95;;
20888;SDS011;10604;51.976;7.594;2023-02-27T16:49:21;3.53;;;2.10;;
20888;SDS011;10604;51.976;7.594;2023-02-27T16:51:54;4.10;;;2.60;;
20888;SDS011;10604;51.976;7.594;2023-02-27T16:54:20;5.15;;;2.80;;
20888;SDS011;10604;51.976;7.594;2023-02-27T16:56:47;9.75;;;5.97;;
20888;SDS011;10604;51.976;7.594;2023-02-27T17:01:53;4.53;;;2.85;;
20888;SDS011;10604;51.976;7.594;2023-02-27T17:04:19;3.22;;;2.03;;
20888;SDS011;10604;51.976;7.594;2023-02-27T17:06:44;4.03;;;2.27;;
20888;SDS011;10604;51.976;7.594;2023-02-27T17:09:10;4.20;;;2.77;;
20888;SDS011;10604;51.976;7.594;2023-02-27T17:11:36;4.20;;;3.05;;
20888;SDS011;10604;51.976;7.594;2023-02-27T17:14:01;5.37;;;3.77;;
20888;SDS011;10604;51.976;7.594;2023-02-27T17:16:27;4.43;;;2.70;;
20888;SDS011;10604;51.976;7.594;2023-02-27T17:18:52;4.38;;;2.40;;
20888;SDS011;10604;51.976;7.594;2023-02-27T17:21:17;2.60;;;1.90;;
20888;SDS011;10604;51.976;7.594;2023-02-27T17:23:44;5.30;;;3.42;;
20888;SDS011;10604;51.976;7.594;2023-02-27T17:26:10;4.95;;;2.97;;
20888;SDS011;10604;51.976;7.594;2023-02-27T17:28:36;4.97;;;2.75;;
20888;SDS011;10604;51.976;7.594;2023-02-27T17:31:06;4.80;;;2.70;;
20888;SDS011;10604;51.976;7.594;2023-02-27T17:33:35;4.22;;;2.63;;
20888;SDS011;10604;51.976;7.594;2023-02-27T17:36:05;4.55;;;2.58;;
20888;SDS011;10604;51.976;7.594;2023-02-27T17:38:32;5.97;;;2.90;;
20888;SDS011;10604;51.976;7.594;2023-02-27T17:40:57;4.55;;;2.83;;
20888;SDS011;10604;51.976;7.594;2023-02-27T17:43:23;6.03;;;3.00;;
20888;SDS011;10604;51.976;7.594;2023-02-27T17:45:48;4.85;;;2.95;;
20888;SDS011;10604;51.976;7.594;2023-02-27T17:48:14;4.83;;;3.27;;
20888;SDS011;10604;51.976;7.594;2023-02-27T17:50:39;4.70;;;3.63;;